sensor_id;sensor_type;location;lat;lon;timestamp;temperature;humidity
25688;DHT22;17407;51.120;3.702;2024-02-15T00:01:00;13.90;99.90
25688;DHT22;17407;51.120;3.702;2024-02-15T00:03:26;13.90;99.90
25688;DHT22;17407;51.120;3.702;2024-02-15T00:05:51;13.90;99.90
25688;DHT22;17407;51.120;3.702;2024-02-15T00:08:18;13.90;99.90
25688;DHT22;17407;51.120;3.702;2024-02-15T00:10:45;13.90;99.90
25688;DHT22;17407;51.120;3.702;2024-02-15T00:13:12;13.90;99.90
25688;DHT22;17407;51.120;3.702;2024-02-15T00:15:38;13.90;99.90
25688;DHT22;17407;51.120;3.702;2024-02-15T00:18:03;13.90;99.90
25688;DHT22;17407;51.120;3.702;2024-02-15T00:20:29;13.80;99.90
25688;DHT22;17407;51.120;3.702;2024-02-15T00:22:55;13.90;99.90
25688;DHT22;17407;51.120;3.702;2024-02-15T00:25:21;13.90;99.90
25688;DHT22;17407;51.120;3.702;2024-02-15T00:27:47;13.90;99.90
25688;DHT22;17407;51.120;3.702;2024-02-15T00:30:13;13.90;99.90
25688;DHT22;17407;51.120;3.702;2024-02-15T00:32:39;13.90;99.90
25688;DHT22;17407;51.120;3.702;2024-02-15T00:35:05;13.90;99.90
25688;DHT22;17407;51.120;3.702;2024-02-15T00:37:33;13.90;99.90
25688;DHT22;17407;51.120;3.702;2024-02-15T00:39:59;13.90;99.90
25688;DHT22;17407;51.120;3.702;2024-02-15T00:42:24;13.90;99.90
25688;DHT22;17407;51.120;3.702;2024-02-15T00:44:51;13.80;99.90
25688;DHT22;17407;51.120;3.702;2024-02-15T00:47:17;13.90;99.90
25688;DHT22;17407;51.120;3.702;2024-02-15T00:49:45;13.80;99.90
25688;DHT22;17407;51.120;3.702;2024-02-15T00:52:11;13.80;99.90
25688;DHT22;17407;51.120;3.702;2024-02-15T00:54:36;13.90;99.90
25688;DHT22;17407;51.120;3.702;2024-02-15T00:57:02;13.80;99.90
25688;DHT22;17407;51.120;3.702;2024-02-15T00:59:27;13.90;99.90
25688;DHT22;17407;51.120;3.702;2024-02-15T01:01:53;13.90;99.90
25688;DHT22;17407;51.120;3.702;2024-02-15T01:04:20;14.00;99.90
25688;DHT22;17407;51.120;3.702;2024-02-15T01:06:45;13.90;99.90
25688;DHT22;17407;51.120;3.702;2024-02-15T01:09:11;13.90;99.90
25688;DHT22;17407;51.120;3.702;2024-02-15T01:11:38;13.90;99.90
25688;DHT22;17407;51.120;3.702;2024-02-15T01:14:04;13.90;99.90
25688;DHT22;17407;51.120;3.702;2024-02-15T01:16:29;13.90;99.90
25688;DHT22;17407;51.120;3.702;2024-02-15T01:18:55;13.90;99.90
25688;DHT22;17407;51.120;3.702;2024-02-15T01:21:20;13.90;99.90
25688;DHT22;17407;51.120;3.702;2024-02-15T01:23:47;13.90;99.90
25688;DHT22;17407;51.120;3.702;2024-02-15T01:26:13;14.00;99.90
25688;DHT22;17407;51.120;3.702;2024-02-15T01:28:40;13.90;99.90
25688;DHT22;17407;51.120;3.702;2024-02-15T01:31:09;13.90;99.90
25688;DHT22;17407;51.120;3.702;2024-02-15T01:33:36;14.00;99.90
25688;DHT22;17407;51.120;3.702;2024-02-15T01:36:03;13.90;99.90
25688;DHT22;17407;51.120;3.702;2024-02-15T01:38:29;14.00;99.90
25688;DHT22;17407;51.120;3.702;2024-02-15T01:40:54;14.00;99.90
25688;DHT22;17407;51.120;3.702;2024-02-15T01:43:20;14.00;99.90
25688;DHT22;17407;51.120;3.702;2024-02-15T01:45:46;14.00;99.90
25688;DHT22;17407;51.120;3.702;2024-02-15T01:48:15;14.00;99.90
25688;DHT22;17407;51.120;3.702;2024-02-15T01:50:41;14.00;99.90
25688;DHT22;17407;51.120;3.702;2024-02-15T01:53:08;14.00;99.90
25688;DHT22;17407;51.120;3.702;2024-02-15T01:55:34;14.00;99.90
25688;DHT22;17407;51.120;3.702;2024-02-15T01:58:01;14.00;99.90
25688;DHT22;17407;51.120;3.702;2024-02-15T02:00:27;14.00;99.90
25688;DHT22;17407;51.120;3.702;2024-02-15T02:02:54;14.00;99.90
25688;DHT22;17407;51.120;3.702;2024-02-15T02:05:27;14.00;99.90
25688;DHT22;17407;51.120;3.702;2024-02-15T02:07:53;14.00;99.90
25688;DHT22;17407;51.120;3.702;2024-02-15T02:10:19;13.90;99.90
25688;DHT22;17407;51.120;3.702;2024-02-15T02:12:45;14.00;99.90
25688;DHT22;17407;51.120;3.702;2024-02-15T02:15:11;13.90;99.90
25688;DHT22;17407;51.120;3.702;2024-02-15T02:17:36;13.90;99.90
25688;DHT22;17407;51.120;3.702;2024-02-15T02:20:03;13.90;99.90
25688;DHT22;17407;51.120;3.702;2024-02-15T02:22:34;13.90;99.90
25688;DHT22;17407;51.120;3.702;2024-02-15T02:25:07;13.80;99.90
25688;DHT22;17407;51.120;3.702;2024-02-15T02:27:36;13.80;99.90
25688;DHT22;17407;51.120;3.702;2024-02-15T02:30:12;13.80;99.90
25688;DHT22;17407;51.120;3.702;2024-02-15T02:32:41;13.80;99.90
25688;DHT22;17407;51.120;3.702;2024-02-15T02:35:07;13.80;99.90
25688;DHT22;17407;51.120;3.702;2024-02-15T02:37:33;13.80;99.90
25688;DHT22;17407;51.120;3.702;2024-02-15T02:40:02;13.80;99.90
25688;DHT22;17407;51.120;3.702;2024-02-15T02:42:28;13.80;99.90
25688;DHT22;17407;51.120;3.702;2024-02-15T02:44:54;13.80;99.90
25688;DHT22;17407;51.120;3.702;2024-02-15T02:47:19;13.90;99.90
25688;DHT22;17407;51.120;3.702;2024-02-15T02:49:45;13.80;99.90
25688;DHT22;17407;51.120;3.702;2024-02-15T02:52:10;13.70;99.90
25688;DHT22;17407;51.120;3.702;2024-02-15T02:54:36;13.80;99.90
25688;DHT22;17407;51.120;3.702;2024-02-15T02:57:02;13.90;99.90
25688;DHT22;17407;51.120;3.702;2024-02-15T02:59:33;13.80;99.90
25688;DHT22;17407;51.120;3.702;2024-02-15T03:01:59;13.80;99.90
25688;DHT22;17407;51.120;3.702;2024-02-15T03:04:24;13.80;99.90
25688;DHT22;17407;51.120;3.702;2024-02-15T03:06:50;13.80;99.90
25688;DHT22;17407;51.120;3.702;2024-02-15T03:09:16;13.80;99.90
25688;DHT22;17407;51.120;3.702;2024-02-15T03:11:42;13.70;99.90
25688;DHT22;17407;51.120;3.702;2024-02-15T03:14:08;13.70;99.90
25688;DHT22;17407;51.120;3.702;2024-02-15T03:16:33;13.70;99.90
25688;DHT22;17407;51.120;3.702;2024-02-15T03:18:59;13.60;99.90
25688;DHT22;17407;51.120;3.702;2024-02-15T03:21:28;13.70;99.90
25688;DHT22;17407;51.120;3.702;2024-02-15T03:23:53;13.70;99.90
25688;DHT22;17407;51.120;3.702;2024-02-15T03:26:32;13.80;99.90
25688;DHT22;17407;51.120;3.702;2024-02-15T03:29:04;13.80;99.90
25688;DHT22;17407;51.120;3.702;2024-02-15T03:31:30;13.80;99.90
25688;DHT22;17407;51.120;3.702;2024-02-15T03:33:58;13.70;99.90
25688;DHT22;17407;51.120;3.702;2024-02-15T03:36:24;13.70;99.90
25688;DHT22;17407;51.120;3.702;2024-02-15T03:38:50;13.70;99.90
25688;DHT22;17407;51.120;3.702;2024-02-15T03:41:18;13.70;99.90
25688;DHT22;17407;51.120;3.702;2024-02-15T03:43:43;13.70;99.90
25688;DHT22;17407;51.120;3.702;2024-02-15T03:46:09;13.70;99.90
25688;DHT22;17407;51.120;3.702;2024-02-15T03:48:38;13.70;99.90
25688;DHT22;17407;51.120;3.702;2024-02-15T03:51:03;13.60;99.90
25688;DHT22;17407;51.120;3.702;2024-02-15T03:53:29;13.70;99.90
25688;DHT22;17407;51.120;3.702;2024-02-15T03:55:56;13.60;99.90
25688;DHT22;17407;51.120;3.702;2024-02-15T03:58:22;13.70;99.90
25688;DHT22;17407;51.120;3.702;2024-02-15T04:00:48;13.70;99.90
25688;DHT22;17407;51.120;3.702;2024-02-15T04:03:14;13.70;99.90
25688;DHT22;17407;51.120;3.702;2024-02-15T04:05:39;13.70;99.90
25688;DHT22;17407;51.120;3.702;2024-02-15T04:08:05;13.70;99.90
25688;DHT22;17407;51.120;3.702;2024-02-15T04:10:31;13.60;99.90
25688;DHT22;17407;51.120;3.702;2024-02-15T04:12:56;13.60;99.90
25688;DHT22;17407;51.120;3.702;2024-02-15T04:15:23;13.60;99.90
25688;DHT22;17407;51.120;3.702;2024-02-15T04:17:49;13.60;99.90
25688;DHT22;17407;51.120;3.702;2024-02-15T04:20:22;13.70;99.90
25688;DHT22;17407;51.120;3.702;2024-02-15T04:22:48;13.60;99.90
25688;DHT22;17407;51.120;3.702;2024-02-15T04:25:15;13.70;99.90
25688;DHT22;17407;51.120;3.702;2024-02-15T04:27:46;13.70;99.90
25688;DHT22;17407;51.120;3.702;2024-02-15T04:30:15;13.70;99.90
25688;DHT22;17407;51.120;3.702;2024-02-15T04:32:44;13.70;99.90
25688;DHT22;17407;51.120;3.702;2024-02-15T04:35:10;13.60;99.90
25688;DHT22;17407;51.120;3.702;2024-02-15T04:37:37;13.70;99.90
25688;DHT22;17407;51.120;3.702;2024-02-15T04:40:03;13.70;99.90
25688;DHT22;17407;51.120;3.702;2024-02-15T04:42:36;13.70;99.90
25688;DHT22;17407;51.120;3.702;2024-02-15T04:45:05;13.70;99.90
25688;DHT22;17407;51.120;3.702;2024-02-15T04:47:34;13.70;99.90
25688;DHT22;17407;51.120;3.702;2024-02-15T04:50:00;13.70;99.90
25688;DHT22;17407;51.120;3.702;2024-02-15T04:52:26;13.70;99.90
25688;DHT22;17407;51.120;3.702;2024-02-15T04:54:51;13.60;99.90
25688;DHT22;17407;51.120;3.702;2024-02-15T04:57:20;13.60;99.90
25688;DHT22;17407;51.120;3.702;2024-02-15T04:59:45;13.60;99.90
25688;DHT22;17407;51.120;3.702;2024-02-15T05:02:14;13.70;99.90
25688;DHT22;17407;51.120;3.702;2024-02-15T05:04:39;13.60;99.90
25688;DHT22;17407;51.120;3.702;2024-02-15T05:07:08;13.60;99.90
25688;DHT22;17407;51.120;3.702;2024-02-15T05:09:34;13.70;99.90
25688;DHT22;17407;51.120;3.702;2024-02-15T05:12:02;13.70;99.90
25688;DHT22;17407;51.120;3.702;2024-02-15T05:14:29;13.70;99.90
25688;DHT22;17407;51.120;3.702;2024-02-15T05:16:55;13.70;99.90
25688;DHT22;17407;51.120;3.702;2024-02-15T05:19:20;13.70;99.90
25688;DHT22;17407;51.120;3.702;2024-02-15T05:21:47;13.70;99.90
25688;DHT22;17407;51.120;3.702;2024-02-15T05:24:16;13.70;99.90
25688;DHT22;17407;51.120;3.702;2024-02-15T05:26:43;13.70;99.90
25688;DHT22;17407;51.120;3.702;2024-02-15T05:29:10;13.80;99.90
25688;DHT22;17407;51.120;3.702;2024-02-15T05:31:36;13.70;99.90
25688;DHT22;17407;51.120;3.702;2024-02-15T05:34:04;13.70;99.90
25688;DHT22;17407;51.120;3.702;2024-02-15T05:36:30;13.80;99.90
25688;DHT22;17407;51.120;3.702;2024-02-15T05:38:56;13.80;99.90
25688;DHT22;17407;51.120;3.702;2024-02-15T05:41:23;13.80;99.90
25688;DHT22;17407;51.120;3.702;2024-02-15T05:43:50;13.80;99.90
25688;DHT22;17407;51.120;3.702;2024-02-15T05:46:18;13.80;99.90
25688;DHT22;17407;51.120;3.702;2024-02-15T05:48:44;13.70;99.90
25688;DHT22;17407;51.120;3.702;2024-02-15T05:51:10;13.80;99.90
25688;DHT22;17407;51.120;3.702;2024-02-15T05:53:35;13.80;99.90
25688;DHT22;17407;51.120;3.702;2024-02-15T05:56:08;13.80;99.90
25688;DHT22;17407;51.120;3.702;2024-02-15T05:58:34;13.80;99.90
25688;DHT22;17407;51.120;3.702;2024-02-15T06:01:02;13.80;99.90
25688;DHT22;17407;51.120;3.702;2024-02-15T06:03:28;13.80;99.90
25688;DHT22;17407;51.120;3.702;2024-02-15T06:05:54;13.90;99.90
25688;DHT22;17407;51.120;3.702;2024-02-15T06:08:30;13.90;99.90
25688;DHT22;17407;51.120;3.702;2024-02-15T06:10:56;13.90;99.90
25688;DHT22;17407;51.120;3.702;2024-02-15T06:13:22;13.80;99.90
25688;DHT22;17407;51.120;3.702;2024-02-15T06:15:52;13.90;99.90
25688;DHT22;17407;51.120;3.702;2024-02-15T06:20:58;13.90;99.90
25688;DHT22;17407;51.120;3.702;2024-02-15T06:23:25;13.90;99.90
25688;DHT22;17407;51.120;3.702;2024-02-15T06:25:53;13.90;99.90
25688;DHT22;17407;51.120;3.702;2024-02-15T06:28:20;13.90;99.90
25688;DHT22;17407;51.120;3.702;2024-02-15T06:31:05;13.90;99.90
25688;DHT22;17407;51.120;3.702;2024-02-15T06:33:49;14.00;99.90
25688;DHT22;17407;51.120;3.702;2024-02-15T06:36:33;13.90;99.90
25688;DHT22;17407;51.120;3.702;2024-02-15T06:39:18;13.90;99.90
25688;DHT22;17407;51.120;3.702;2024-02-15T06:42:02;13.90;99.90
25688;DHT22;17407;51.120;3.702;2024-02-15T06:44:28;13.90;99.90
25688;DHT22;17407;51.120;3.702;2024-02-15T06:46:53;13.90;99.90
25688;DHT22;17407;51.120;3.702;2024-02-15T06:49:19;13.90;99.90
25688;DHT22;17407;51.120;3.702;2024-02-15T06:51:48;14.00;99.90
25688;DHT22;17407;51.120;3.702;2024-02-15T06:54:13;14.00;99.90
25688;DHT22;17407;51.120;3.702;2024-02-15T06:56:39;13.90;99.90
25688;DHT22;17407;51.120;3.702;2024-02-15T06:59:09;14.00;99.90
25688;DHT22;17407;51.120;3.702;2024-02-15T07:01:35;13.90;99.90
25688;DHT22;17407;51.120;3.702;2024-02-15T07:04:01;13.90;99.90
25688;DHT22;17407;51.120;3.702;2024-02-15T07:06:28;14.00;99.90
25688;DHT22;17407;51.120;3.702;2024-02-15T07:08:54;14.00;99.90
25688;DHT22;17407;51.120;3.702;2024-02-15T07:11:22;14.00;99.90
25688;DHT22;17407;51.120;3.702;2024-02-15T07:13:48;14.00;99.90
25688;DHT22;17407;51.120;3.702;2024-02-15T07:16:13;14.00;99.90
25688;DHT22;17407;51.120;3.702;2024-02-15T07:18:41;14.00;99.90
25688;DHT22;17407;51.120;3.702;2024-02-15T07:21:06;13.90;99.90
25688;DHT22;17407;51.120;3.702;2024-02-15T07:23:39;13.90;99.90
25688;DHT22;17407;51.120;3.702;2024-02-15T07:26:06;13.90;99.90
25688;DHT22;17407;51.120;3.702;2024-02-15T07:28:34;14.00;99.90
25688;DHT22;17407;51.120;3.702;2024-02-15T07:31:00;13.90;99.90
25688;DHT22;17407;51.120;3.702;2024-02-15T07:33:28;13.80;99.90
25688;DHT22;17407;51.120;3.702;2024-02-15T07:35:54;13.90;99.90
25688;DHT22;17407;51.120;3.702;2024-02-15T07:38:20;13.90;99.90
25688;DHT22;17407;51.120;3.702;2024-02-15T07:40:50;13.80;99.90
25688;DHT22;17407;51.120;3.702;2024-02-15T07:43:16;13.80;99.90
25688;DHT22;17407;51.120;3.702;2024-02-15T07:45:42;13.80;99.90
25688;DHT22;17407;51.120;3.702;2024-02-15T07:48:08;13.80;99.90
25688;DHT22;17407;51.120;3.702;2024-02-15T07:50:33;13.80;99.90
25688;DHT22;17407;51.120;3.702;2024-02-15T07:52:59;13.80;99.90
25688;DHT22;17407;51.120;3.702;2024-02-15T07:55:24;13.70;99.90
25688;DHT22;17407;51.120;3.702;2024-02-15T07:57:53;13.70;99.90
25688;DHT22;17407;51.120;3.702;2024-02-15T08:00:19;13.70;99.90
25688;DHT22;17407;51.120;3.702;2024-02-15T08:02:45;13.70;99.90
25688;DHT22;17407;51.120;3.702;2024-02-15T08:05:12;13.70;99.90
25688;DHT22;17407;51.120;3.702;2024-02-15T08:07:42;13.70;99.90
25688;DHT22;17407;51.120;3.702;2024-02-15T08:10:10;13.60;99.90
25688;DHT22;17407;51.120;3.702;2024-02-15T08:12:41;13.60;99.90
25688;DHT22;17407;51.120;3.702;2024-02-15T08:15:09;13.70;99.90
25688;DHT22;17407;51.120;3.702;2024-02-15T08:17:44;13.70;99.90
25688;DHT22;17407;51.120;3.702;2024-02-15T08:20:11;13.70;99.90
25688;DHT22;17407;51.120;3.702;2024-02-15T08:22:39;13.60;99.90
25688;DHT22;17407;51.120;3.702;2024-02-15T08:25:10;13.60;99.90
25688;DHT22;17407;51.120;3.702;2024-02-15T08:27:40;13.60;99.90
25688;DHT22;17407;51.120;3.702;2024-02-15T08:30:12;13.60;99.90
25688;DHT22;17407;51.120;3.702;2024-02-15T08:32:39;13.60;99.90
25688;DHT22;17407;51.120;3.702;2024-02-15T08:35:07;13.60;99.90
25688;DHT22;17407;51.120;3.702;2024-02-15T08:37:36;13.60;99.90
25688;DHT22;17407;51.120;3.702;2024-02-15T08:40:04;13.60;99.90
25688;DHT22;17407;51.120;3.702;2024-02-15T08:42:30;13.60;99.90
25688;DHT22;17407;51.120;3.702;2024-02-15T08:44:57;13.50;99.90
25688;DHT22;17407;51.120;3.702;2024-02-15T08:47:24;13.70;99.90
25688;DHT22;17407;51.120;3.702;2024-02-15T08:49:50;13.70;99.90
25688;DHT22;17407;51.120;3.702;2024-02-15T08:52:15;13.70;99.90
25688;DHT22;17407;51.120;3.702;2024-02-15T08:54:44;13.60;99.90
25688;DHT22;17407;51.120;3.702;2024-02-15T08:57:09;13.60;99.90
25688;DHT22;17407;51.120;3.702;2024-02-15T08:59:37;13.70;99.90
25688;DHT22;17407;51.120;3.702;2024-02-15T09:02:04;13.70;99.90
25688;DHT22;17407;51.120;3.702;2024-02-15T09:04:31;13.80;99.90
25688;DHT22;17407;51.120;3.702;2024-02-15T09:06:57;13.80;99.90
25688;DHT22;17407;51.120;3.702;2024-02-15T09:09:22;13.70;99.90
25688;DHT22;17407;51.120;3.702;2024-02-15T09:11:48;13.80;99.90
25688;DHT22;17407;51.120;3.702;2024-02-15T09:14:13;13.80;99.90
25688;DHT22;17407;51.120;3.702;2024-02-15T09:16:39;13.90;99.90
25688;DHT22;17407;51.120;3.702;2024-02-15T09:19:05;13.90;99.90
25688;DHT22;17407;51.120;3.702;2024-02-15T09:21:31;13.90;99.90
25688;DHT22;17407;51.120;3.702;2024-02-15T09:23:59;13.90;99.90
25688;DHT22;17407;51.120;3.702;2024-02-15T09:26:25;13.90;99.90
25688;DHT22;17407;51.120;3.702;2024-02-15T09:28:51;14.00;99.90
25688;DHT22;17407;51.120;3.702;2024-02-15T09:31:16;14.00;99.90
25688;DHT22;17407;51.120;3.702;2024-02-15T09:33:42;14.10;99.90
25688;DHT22;17407;51.120;3.702;2024-02-15T09:36:07;14.10;99.90
25688;DHT22;17407;51.120;3.702;2024-02-15T09:38:33;14.10;99.90
25688;DHT22;17407;51.120;3.702;2024-02-15T09:40:59;14.20;99.90
25688;DHT22;17407;51.120;3.702;2024-02-15T09:43:25;14.20;99.90
25688;DHT22;17407;51.120;3.702;2024-02-15T09:45:51;14.30;99.90
25688;DHT22;17407;51.120;3.702;2024-02-15T09:48:18;14.30;99.90
25688;DHT22;17407;51.120;3.702;2024-02-15T09:50:47;14.30;99.90
25688;DHT22;17407;51.120;3.702;2024-02-15T09:53:13;14.40;99.90
25688;DHT22;17407;51.120;3.702;2024-02-15T09:55:40;14.50;99.90
25688;DHT22;17407;51.120;3.702;2024-02-15T09:58:09;14.50;99.90
25688;DHT22;17407;51.120;3.702;2024-02-15T10:00:36;14.50;99.90
25688;DHT22;17407;51.120;3.702;2024-02-15T10:03:02;14.50;99.90
25688;DHT22;17407;51.120;3.702;2024-02-15T10:05:30;14.60;99.90
25688;DHT22;17407;51.120;3.702;2024-02-15T10:07:56;14.70;99.90
25688;DHT22;17407;51.120;3.702;2024-02-15T10:10:23;14.60;99.90
25688;DHT22;17407;51.120;3.702;2024-02-15T10:12:51;14.70;99.90
25688;DHT22;17407;51.120;3.702;2024-02-15T10:15:38;14.70;99.90
25688;DHT22;17407;51.120;3.702;2024-02-15T10:18:09;14.80;99.90
25688;DHT22;17407;51.120;3.702;2024-02-15T10:20:40;14.70;99.90
25688;DHT22;17407;51.120;3.702;2024-02-15T10:23:14;14.80;99.90
25688;DHT22;17407;51.120;3.702;2024-02-15T10:25:42;14.80;99.90
25688;DHT22;17407;51.120;3.702;2024-02-15T10:28:12;14.80;99.90
25688;DHT22;17407;51.120;3.702;2024-02-15T10:30:42;14.90;99.90
25688;DHT22;17407;51.120;3.702;2024-02-15T10:33:25;15.00;99.90
25688;DHT22;17407;51.120;3.702;2024-02-15T10:36:08;15.10;99.90
25688;DHT22;17407;51.120;3.702;2024-02-15T10:38:34;15.20;99.90
25688;DHT22;17407;51.120;3.702;2024-02-15T10:41:07;15.20;99.90
25688;DHT22;17407;51.120;3.702;2024-02-15T10:43:34;15.20;99.90
25688;DHT22;17407;51.120;3.702;2024-02-15T10:46:00;15.40;99.90
25688;DHT22;17407;51.120;3.702;2024-02-15T10:48:26;15.30;99.90
25688;DHT22;17407;51.120;3.702;2024-02-15T10:50:56;15.50;99.90
25688;DHT22;17407;51.120;3.702;2024-02-15T10:53:27;15.60;99.90
25688;DHT22;17407;51.120;3.702;2024-02-15T10:59:36;15.80;99.90
25688;DHT22;17407;51.120;3.702;2024-02-15T11:01:59;15.90;99.90
25688;DHT22;17407;51.120;3.702;2024-02-15T11:04:26;15.90;99.90
25688;DHT22;17407;51.120;3.702;2024-02-15T11:06:58;16.00;99.90
25688;DHT22;17407;51.120;3.702;2024-02-15T11:09:25;16.10;99.90
25688;DHT22;17407;51.120;3.702;2024-02-15T11:11:55;16.20;99.90
25688;DHT22;17407;51.120;3.702;2024-02-15T11:14:28;16.30;99.90
25688;DHT22;17407;51.120;3.702;2024-02-15T11:16:55;16.40;99.90
25688;DHT22;17407;51.120;3.702;2024-02-15T11:22:08;16.60;99.90
25688;DHT22;17407;51.120;3.702;2024-02-15T11:24:36;16.60;99.90
25688;DHT22;17407;51.120;3.702;2024-02-15T11:27:03;16.60;99.90
25688;DHT22;17407;51.120;3.702;2024-02-15T11:29:49;16.70;99.90
25688;DHT22;17407;51.120;3.702;2024-02-15T11:32:49;16.80;99.90
25688;DHT22;17407;51.120;3.702;2024-02-15T11:35:20;16.90;99.90
25688;DHT22;17407;51.120;3.702;2024-02-15T11:42:53;17.00;99.90
25688;DHT22;17407;51.120;3.702;2024-02-15T11:45:19;17.00;99.90
25688;DHT22;17407;51.120;3.702;2024-02-15T11:47:48;17.10;99.90
25688;DHT22;17407;51.120;3.702;2024-02-15T11:50:16;17.10;99.90
25688;DHT22;17407;51.120;3.702;2024-02-15T11:52:50;17.10;99.90
25688;DHT22;17407;51.120;3.702;2024-02-15T11:55:23;17.10;99.90
25688;DHT22;17407;51.120;3.702;2024-02-15T11:57:59;17.20;99.90
25688;DHT22;17407;51.120;3.702;2024-02-15T12:00:41;17.20;99.90
25688;DHT22;17407;51.120;3.702;2024-02-15T12:03:26;17.20;99.90
25688;DHT22;17407;51.120;3.702;2024-02-15T12:06:10;17.20;99.90
25688;DHT22;17407;51.120;3.702;2024-02-15T12:08:55;17.30;99.90
25688;DHT22;17407;51.120;3.702;2024-02-15T12:11:40;17.30;99.90
25688;DHT22;17407;51.120;3.702;2024-02-15T12:14:25;17.40;99.90
25688;DHT22;17407;51.120;3.702;2024-02-15T12:17:12;17.30;99.90
25688;DHT22;17407;51.120;3.702;2024-02-15T12:19:59;17.30;99.90
25688;DHT22;17407;51.120;3.702;2024-02-15T12:22:36;17.30;99.90
25688;DHT22;17407;51.120;3.702;2024-02-15T12:25:06;17.50;99.90
25688;DHT22;17407;51.120;3.702;2024-02-15T12:27:41;17.50;99.90
25688;DHT22;17407;51.120;3.702;2024-02-15T12:30:17;17.60;99.90
25688;DHT22;17407;51.120;3.702;2024-02-15T12:32:47;17.60;99.90
25688;DHT22;17407;51.120;3.702;2024-02-15T12:35:17;17.50;99.90
25688;DHT22;17407;51.120;3.702;2024-02-15T12:38:00;17.50;99.90
25688;DHT22;17407;51.120;3.702;2024-02-15T12:40:39;17.50;99.90
25688;DHT22;17407;51.120;3.702;2024-02-15T12:43:06;17.60;99.90
25688;DHT22;17407;51.120;3.702;2024-02-15T12:45:38;17.70;99.90
25688;DHT22;17407;51.120;3.702;2024-02-15T12:48:05;17.70;99.90
25688;DHT22;17407;51.120;3.702;2024-02-15T12:50:32;17.70;99.90
25688;DHT22;17407;51.120;3.702;2024-02-15T12:52:58;17.70;99.90
25688;DHT22;17407;51.120;3.702;2024-02-15T12:55:32;17.80;99.90
25688;DHT22;17407;51.120;3.702;2024-02-15T12:58:02;17.80;99.90
25688;DHT22;17407;51.120;3.702;2024-02-15T13:00:35;17.80;99.90
25688;DHT22;17407;51.120;3.702;2024-02-15T13:03:06;17.90;99.90
25688;DHT22;17407;51.120;3.702;2024-02-15T13:05:34;17.80;99.90
25688;DHT22;17407;51.120;3.702;2024-02-15T13:08:02;17.90;99.90
25688;DHT22;17407;51.120;3.702;2024-02-15T13:10:31;17.90;99.90
25688;DHT22;17407;51.120;3.702;2024-02-15T13:12:57;17.90;99.90
25688;DHT22;17407;51.120;3.702;2024-02-15T13:15:24;17.80;99.90
25688;DHT22;17407;51.120;3.702;2024-02-15T13:17:53;17.80;99.90
25688;DHT22;17407;51.120;3.702;2024-02-15T13:20:20;17.90;99.90
25688;DHT22;17407;51.120;3.702;2024-02-15T13:22:53;18.00;99.90
25688;DHT22;17407;51.120;3.702;2024-02-15T13:25:19;17.90;99.90
25688;DHT22;17407;51.120;3.702;2024-02-15T13:27:47;17.90;99.90
25688;DHT22;17407;51.120;3.702;2024-02-15T13:30:13;18.00;99.90
25688;DHT22;17407;51.120;3.702;2024-02-15T13:32:40;17.90;99.90
25688;DHT22;17407;51.120;3.702;2024-02-15T13:35:09;18.00;99.90
25688;DHT22;17407;51.120;3.702;2024-02-15T13:37:48;18.10;99.90
25688;DHT22;17407;51.120;3.702;2024-02-15T13:40:14;18.20;99.90
25688;DHT22;17407;51.120;3.702;2024-02-15T13:42:46;18.20;99.90
25688;DHT22;17407;51.120;3.702;2024-02-15T13:45:44;18.20;99.90
25688;DHT22;17407;51.120;3.702;2024-02-15T13:48:10;18.20;99.90
25688;DHT22;17407;51.120;3.702;2024-02-15T13:50:40;18.20;99.90
25688;DHT22;17407;51.120;3.702;2024-02-15T13:53:06;18.20;99.90
25688;DHT22;17407;51.120;3.702;2024-02-15T13:55:32;18.10;99.90
25688;DHT22;17407;51.120;3.702;2024-02-15T13:57:58;18.10;99.90
25688;DHT22;17407;51.120;3.702;2024-02-15T14:00:24;18.20;99.90
25688;DHT22;17407;51.120;3.702;2024-02-15T14:03:00;18.10;99.90
25688;DHT22;17407;51.120;3.702;2024-02-15T14:05:27;18.00;99.90
25688;DHT22;17407;51.120;3.702;2024-02-15T14:07:56;17.90;99.90
25688;DHT22;17407;51.120;3.702;2024-02-15T14:10:23;17.90;99.90
25688;DHT22;17407;51.120;3.702;2024-02-15T14:12:51;18.00;99.90
25688;DHT22;17407;51.120;3.702;2024-02-15T14:15:29;18.00;99.90
25688;DHT22;17407;51.120;3.702;2024-02-15T14:17:55;18.10;99.90
25688;DHT22;17407;51.120;3.702;2024-02-15T14:20:21;18.20;99.90
25688;DHT22;17407;51.120;3.702;2024-02-15T14:22:50;18.30;99.90
25688;DHT22;17407;51.120;3.702;2024-02-15T14:25:21;18.30;99.90
25688;DHT22;17407;51.120;3.702;2024-02-15T14:27:47;18.40;99.90
25688;DHT22;17407;51.120;3.702;2024-02-15T14:30:13;18.50;99.90
25688;DHT22;17407;51.120;3.702;2024-02-15T14:32:57;18.60;99.90
25688;DHT22;17407;51.120;3.702;2024-02-15T14:35:37;19.00;99.90
25688;DHT22;17407;51.120;3.702;2024-02-15T14:38:08;19.10;99.90
25688;DHT22;17407;51.120;3.702;2024-02-15T14:40:46;19.10;99.90
25688;DHT22;17407;51.120;3.702;2024-02-15T14:43:16;19.20;99.90
25688;DHT22;17407;51.120;3.702;2024-02-15T14:45:43;19.30;99.90
25688;DHT22;17407;51.120;3.702;2024-02-15T14:48:09;19.40;99.90
25688;DHT22;17407;51.120;3.702;2024-02-15T14:50:42;19.50;99.90
25688;DHT22;17407;51.120;3.702;2024-02-15T14:53:08;19.50;99.90
25688;DHT22;17407;51.120;3.702;2024-02-15T14:55:34;19.50;99.90
25688;DHT22;17407;51.120;3.702;2024-02-15T14:58:00;19.60;99.90
25688;DHT22;17407;51.120;3.702;2024-02-15T15:00:26;19.60;99.90
25688;DHT22;17407;51.120;3.702;2024-02-15T15:02:53;19.60;99.90
25688;DHT22;17407;51.120;3.702;2024-02-15T15:05:22;19.50;99.90
25688;DHT22;17407;51.120;3.702;2024-02-15T15:08:06;19.60;99.90
25688;DHT22;17407;51.120;3.702;2024-02-15T15:10:50;19.40;99.90
25688;DHT22;17407;51.120;3.702;2024-02-15T15:13:35;19.30;99.90
25688;DHT22;17407;51.120;3.702;2024-02-15T15:16:01;19.20;99.90
25688;DHT22;17407;51.120;3.702;2024-02-15T15:18:33;19.10;99.90
25688;DHT22;17407;51.120;3.702;2024-02-15T15:20:59;19.10;99.90
25688;DHT22;17407;51.120;3.702;2024-02-15T15:23:29;18.90;99.90
25688;DHT22;17407;51.120;3.702;2024-02-15T15:25:58;18.90;99.90
25688;DHT22;17407;51.120;3.702;2024-02-15T15:28:24;18.80;99.90
25688;DHT22;17407;51.120;3.702;2024-02-15T15:30:49;18.70;99.90
25688;DHT22;17407;51.120;3.702;2024-02-15T15:33:16;18.60;99.90
25688;DHT22;17407;51.120;3.702;2024-02-15T15:35:43;18.50;99.90
25688;DHT22;17407;51.120;3.702;2024-02-15T15:38:09;18.50;99.90
25688;DHT22;17407;51.120;3.702;2024-02-15T15:40:35;18.40;99.90
25688;DHT22;17407;51.120;3.702;2024-02-15T15:43:01;18.40;99.90
25688;DHT22;17407;51.120;3.702;2024-02-15T15:45:28;18.20;99.90
25688;DHT22;17407;51.120;3.702;2024-02-15T15:47:54;18.20;99.90
25688;DHT22;17407;51.120;3.702;2024-02-15T15:50:20;18.00;99.90
25688;DHT22;17407;51.120;3.702;2024-02-15T15:52:47;17.90;99.90